Terminal Aerodrome Forecast
Issued by NWS

Home | Current Version | Previous Version | Text Only | Print | Product List | Glossary Off
Versions: 1 2 3 4 5 6 7 8 9 10 11 12 13 14 15 16 17 18 19 20 21

243
FTUS43 KSGF 232320
TAFJLN
TAF
KJLN 232320Z 2400/2424 18014KT P6SM SCT250
     FM240100 18013G22KT P6SM SCT250 WS020/19045KT
     FM240900 25010KT P6SM BKN050
     FM241100 28011KT P6SM BKN025
     FM241700 29014G21KT P6SM BKN050=

USA.gov is the U.S. government's official web portal to all federal, state and local government web resources and services.